Time;durP1;ratioP1;P1;durP2;ratioP2;P2;SDS_P1;SDS_P2;PMS_P1;PMS_P2;Temp;Humidity;BMP_temperature;BMP_pressure;BME280_temperature;BME280_humidity;BME280_pressure;Samples;Min_cycle;Max_cycle;Signal;HPM_P1;HPM_P2
2024/04/03 03:31:35;;;;;;;0.88;0.70;;;14.90;99.90;;;;;;5340508;23;20277;-82
2024/04/03 03:34:01;;;;;;;0.77;0.50;;;14.90;99.90;;;;;;4860319;29;20037;-82
2024/04/03 03:36:26;;;;;;;0.47;0.30;;;14.90;99.90;;;;;;4873968;29;20029;-83
2024/04/03 03:38:52;;;;;;;0.73;0.40;;;15.00;99.90;;;;;;4868014;29;20441;-82
2024/04/03 03:41:18;;;;;;;0.98;0.50;;;14.90;99.90;;;;;;4877882;29;20029;-82
2024/04/03 03:43:43;;;;;;;0.45;0.40;;;14.90;99.90;;;;;;4868282;29;20032;-81
2024/04/03 03:46:09;;;;;;;1.13;0.50;;;14.90;99.90;;;;;;4857493;29;20029;-82
2024/04/03 03:54:03;;;;;;;0.77;0.47;;;14.90;99.90;;;;;;4861605;29;20119;-82
2024/04/03 03:56:29;;;;;;;1.10;0.70;;;14.90;99.90;;;;;;4861574;29;20475;-82
2024/04/03 03:58:55;;;;;;;0.73;0.40;;;14.90;99.90;;;;;;4860596;29;20033;-82
2024/04/03 04:01:20;;;;;;;1.33;0.60;;;14.90;99.90;;;;;;4844617;29;20101;-82
2024/04/03 04:03:46;;;;;;;2.03;0.70;;;14.90;99.90;;;;;;4860591;29;20483;-82
2024/04/03 04:06:12;;;;;;;1.10;0.63;;;14.90;99.90;;;;;;4867336;29;20062;-82
2024/04/03 04:08:37;;;;;;;0.47;0.45;;;14.90;99.90;;;;;;4859340;29;20125;-82
2024/04/03 04:11:04;;;;;;;0.93;0.70;;;14.90;99.90;;;;;;4844483;29;20041;-82
2024/04/03 04:13:30;;;;;;;0.80;0.60;;;14.90;99.90;;;;;;4861146;29;20395;-82
2024/04/03 04:16:00;;;;;;;1.15;0.50;;;14.90;99.90;;;;;;4858945;29;20035;-82
2024/04/03 04:18:25;;;;;;;0.80;0.43;;;14.90;99.90;;;;;;4859897;29;20568;-82
2024/04/03 04:21:00;;;;;;;0.70;0.50;;;14.90;99.90;;;;;;4859886;29;20120;-82
2024/04/03 04:23:26;;;;;;;0.88;0.65;;;14.90;99.90;;;;;;4860371;29;20054;-82
2024/04/03 04:26:04;;;;;;;0.98;0.50;;;14.90;99.90;;;;;;4861148;29;20025;-82
2024/04/03 04:28:31;;;;;;;0.57;0.52;;;14.90;99.90;;;;;;4859717;29;20514;-82
2024/04/03 04:31:04;;;;;;;0.73;0.55;;;14.90;99.90;;;;;;4843310;29;20383;-82
2024/04/03 04:33:35;;;;;;;1.25;0.50;;;14.90;99.90;;;;;;4844124;29;20033;-81
2024/04/03 04:36:01;;;;;;;1.08;0.60;;;14.90;99.90;;;;;;4859697;29;20040;-82
2024/04/03 04:38:28;;;;;;;1.05;0.50;;;14.90;99.90;;;;;;4855849;29;20034;-82
2024/04/03 04:40:57;;;;;;;1.25;0.50;;;14.90;99.90;;;;;;4858359;29;20030;-82
2024/04/03 04:43:25;;;;;;;0.65;0.50;;;14.90;99.90;;;;;;4843973;29;20040;-82
2024/04/03 04:45:59;;;;;;;2.05;0.65;;;14.90;99.90;;;;;;4844041;29;20526;-82
2024/04/03 04:48:26;;;;;;;0.88;0.50;;;14.90;99.90;;;;;;4857821;29;20474;-80
2024/04/03 04:50:56;;;;;;;0.70;0.50;;;14.90;99.90;;;;;;4841466;29;20034;-82
2024/04/03 04:53:22;;;;;;;0.55;0.43;;;14.90;99.90;;;;;;4859045;29;20140;-82
2024/04/03 04:55:58;;;;;;;0.43;0.32;;;14.90;99.90;;;;;;4859350;29;20535;-82
2024/04/03 04:58:24;;;;;;;1.90;0.50;;;14.90;99.90;;;;;;4843400;29;20025;-82
2024/04/03 05:00:59;;;;;;;1.38;0.47;;;14.90;99.90;;;;;;4860155;29;20048;-82
2024/04/03 05:03:25;;;;;;;0.90;0.55;;;14.90;99.90;;;;;;4859216;29;20029;-81
2024/04/03 05:05:51;;;;;;;0.95;0.63;;;14.90;99.90;;;;;;4858997;29;20034;-82
2024/04/03 05:08:18;;;;;;;0.80;0.38;;;14.90;99.90;;;;;;4859321;29;20113;-81
2024/04/03 05:10:58;;;;;;;1.08;0.68;;;14.90;99.90;;;;;;4858806;29;20042;-82
2024/04/03 05:13:27;;;;;;;0.70;0.60;;;14.90;99.90;;;;;;4852811;29;20082;-82
2024/04/03 05:15:53;;;;;;;0.80;0.52;;;14.90;99.90;;;;;;4858055;29;20030;-82
2024/04/03 05:18:18;;;;;;;1.08;0.60;;;14.90;99.90;;;;;;4860167;29;20030;-82
2024/04/03 05:20:45;;;;;;;1.55;0.50;;;14.90;99.90;;;;;;4843582;29;20034;-82
2024/04/03 05:23:10;;;;;;;1.02;0.40;;;14.90;99.90;;;;;;4859872;29;20021;-82
2024/04/03 05:25:36;;;;;;;0.70;0.40;;;14.90;99.90;;;;;;4857941;29;20040;-82
2024/04/03 05:28:04;;;;;;;1.70;0.50;;;14.90;99.90;;;;;;4844793;29;20151;-82
2024/04/03 05:30:33;;;;;;;1.55;0.60;;;14.90;99.90;;;;;;4843126;29;20029;-82
2024/04/03 05:32:59;;;;;;;0.57;0.50;;;14.90;99.90;;;;;;4842893;29;20491;-82
2024/04/03 05:35:25;;;;;;;1.65;0.50;;;14.90;99.90;;;;;;4857675;29;20030;-82
2024/04/03 05:37:51;;;;;;;1.05;0.50;;;14.90;99.90;;;;;;4839108;29;20041;-82
2024/04/03 05:40:16;;;;;;;1.02;0.47;;;14.90;99.90;;;;;;4858429;29;20502;-82
2024/04/03 05:42:42;;;;;;;0.70;0.60;;;14.80;99.90;;;;;;4859488;29;20158;-82
2024/04/03 05:45:08;;;;;;;0.80;0.50;;;14.80;99.90;;;;;;4857709;29;20119;-81
2024/04/03 05:47:35;;;;;;;1.40;0.70;;;14.80;99.90;;;;;;4843095;29;20063;-82
2024/04/03 05:50:07;;;;;;;0.60;0.43;;;14.90;99.90;;;;;;4858248;29;20510;-82
2024/04/03 05:52:33;;;;;;;0.75;0.50;;;14.90;99.90;;;;;;4837224;29;20030;-82
2024/04/03 05:54:59;;;;;;;0.47;0.38;;;14.90;99.90;;;;;;4841618;29;20069;-82
2024/04/03 05:57:25;;;;;;;0.45;0.40;;;14.90;99.90;;;;;;4843151;29;20095;-82
2024/04/03 05:59:50;;;;;;;1.13;0.60;;;14.90;99.90;;;;;;4842673;29;20033;-82
2024/04/03 06:02:16;;;;;;;0.68;0.47;;;14.90;99.90;;;;;;4857817;29;20029;-82
2024/04/03 06:04:42;;;;;;;1.02;0.50;;;14.90;99.90;;;;;;4857605;29;20029;-81
2024/04/03 06:07:07;;;;;;;0.73;0.40;;;14.90;99.90;;;;;;4859224;29;20037;-82
2024/04/03 06:09:33;;;;;;;0.90;0.45;;;14.90;99.90;;;;;;4858117;29;20483;-82
2024/04/03 06:11:59;;;;;;;0.55;0.40;;;14.90;99.90;;;;;;4841167;29;20124;-82
2024/04/03 06:14:24;;;;;;;0.57;0.45;;;14.80;99.90;;;;;;4858950;29;20376;-82
2024/04/03 06:16:50;;;;;;;1.38;0.50;;;14.80;99.90;;;;;;4857795;29;20026;-81
2024/04/03 06:19:16;;;;;;;2.42;0.60;;;14.90;99.90;;;;;;4850527;29;20032;-82
2024/04/03 06:21:42;;;;;;;0.50;0.30;;;14.80;99.90;;;;;;4856581;29;20060;-82
2024/04/03 06:24:08;;;;;;;0.95;0.60;;;14.90;99.90;;;;;;4857895;29;20064;-82
2024/04/03 06:26:35;;;;;;;1.17;0.52;;;14.80;99.90;;;;;;4858051;29;20029;-82
2024/04/03 06:29:01;;;;;;;0.88;0.60;;;14.80;99.90;;;;;;4856506;29;20029;-82
2024/04/03 06:31:28;;;;;;;0.63;0.50;;;14.80;99.90;;;;;;4857273;29;20524;-81
2024/04/03 06:33:56;;;;;;;0.82;0.50;;;14.90;99.90;;;;;;4866475;29;20085;-82
2024/04/03 06:36:23;;;;;;;0.65;0.50;;;14.90;99.90;;;;;;4841483;29;20022;-82
2024/04/03 06:38:48;;;;;;;0.50;0.40;;;14.90;99.90;;;;;;4853771;29;20021;-83
2024/04/03 06:41:14;;;;;;;1.08;0.60;;;14.80;99.90;;;;;;4858669;29;20406;-80
2024/04/03 06:43:40;;;;;;;0.52;0.30;;;14.80;99.90;;;;;;4858823;29;20125;-82
2024/04/03 06:46:05;;;;;;;0.85;0.50;;;14.90;99.90;;;;;;4841566;29;20485;-82
2024/04/03 06:48:32;;;;;;;0.40;0.40;;;14.90;99.90;;;;;;4857526;29;20484;-82
2024/04/03 06:50:58;;;;;;;0.40;0.40;;;14.80;99.90;;;;;;4857464;29;20033;-83
2024/04/03 06:53:23;;;;;;;0.85;0.50;;;14.90;99.90;;;;;;4857473;29;20407;-82
2024/04/03 06:55:56;;;;;;;0.50;0.50;;;14.90;99.90;;;;;;4857156;29;20502;-82
2024/04/03 06:58:22;;;;;;;0.50;0.50;;;14.90;99.90;;;;;;4857480;29;20506;-82
2024/04/03 07:00:48;;;;;;;0.73;0.50;;;14.90;99.90;;;;;;4839022;29;20029;-82
2024/04/03 07:03:16;;;;;;;0.57;0.57;;;14.90;99.90;;;;;;4858584;29;20037;-82
2024/04/03 07:05:44;;;;;;;1.02;0.40;;;14.90;99.90;;;;;;4857329;29;20041;-82
2024/04/03 07:08:12;;;;;;;1.17;0.50;;;14.80;99.90;;;;;;4855398;29;20045;-82
2024/04/03 07:10:38;;;;;;;2.20;0.50;;;14.90;99.90;;;;;;4858973;29;20437;-82
2024/04/03 07:13:04;;;;;;;0.82;0.50;;;14.90;99.90;;;;;;4856767;29;20034;-82
2024/04/03 07:15:32;;;;;;;1.20;0.68;;;14.80;99.90;;;;;;4842057;29;20022;-82
2024/04/03 07:17:59;;;;;;;0.60;0.47;;;14.90;99.90;;;;;;4856524;29;20018;-82
2024/04/03 07:20:25;;;;;;;0.75;0.40;;;14.80;99.90;;;;;;4857173;29;20026;-82
2024/04/03 07:22:55;;;;;;;1.13;0.40;;;14.90;99.90;;;;;;4864534;29;20557;-82
2024/04/03 07:25:21;;;;;;;0.68;0.40;;;14.80;99.90;;;;;;4851004;29;20402;-83
2024/04/03 07:27:47;;;;;;;0.40;0.40;;;14.80;99.90;;;;;;4845397;29;20026;-82
2024/04/03 07:30:13;;;;;;;0.52;0.40;;;14.80;99.90;;;;;;4860597;29;20538;-82
2024/04/03 07:32:40;;;;;;;0.60;0.43;;;14.80;99.90;;;;;;4860650;29;20037;-82
2024/04/03 07:35:06;;;;;;;0.93;0.70;;;14.90;99.90;;;;;;4861193;29;20018;-81
2024/04/03 07:37:32;;;;;;;0.80;0.40;;;14.90;99.90;;;;;;4840430;29;20040;-81
2024/04/03 07:39:57;;;;;;;1.63;0.65;;;14.90;99.90;;;;;;4845105;29;20053;-83
2024/04/03 07:42:24;;;;;;;1.30;0.68;;;14.80;99.90;;;;;;4844978;29;20033;-82
2024/04/03 07:44:52;;;;;;;1.45;0.45;;;14.80;99.90;;;;;;4859969;29;20032;-82
2024/04/03 07:47:18;;;;;;;1.13;0.40;;;14.80;99.90;;;;;;4844996;29;20044;-82
2024/04/03 07:49:43;;;;;;;0.80;0.50;;;14.80;99.90;;;;;;4868121;29;20021;-82
2024/04/03 07:52:09;;;;;;;0.95;0.32;;;14.80;99.90;;;;;;4860004;29;20018;-82
2024/04/03 07:54:36;;;;;;;0.55;0.45;;;14.80;99.90;;;;;;4844054;29;20447;-82
2024/04/03 07:57:03;;;;;;;0.88;0.45;;;14.80;99.90;;;;;;4869093;29;20022;-82
2024/04/03 07:59:30;;;;;;;0.45;0.40;;;14.80;99.90;;;;;;4860656;29;20028;-82
2024/04/03 08:01:55;;;;;;;0.77;0.38;;;14.90;99.90;;;;;;4858393;29;20394;-78
2024/04/03 08:04:23;;;;;;;3.20;0.50;;;14.90;99.90;;;;;;4841060;29;20129;-82
2024/04/03 08:06:48;;;;;;;1.27;0.47;;;14.70;99.90;;;;;;4859741;29;20077;-84
2024/04/03 08:09:14;;;;;;;0.90;0.45;;;14.60;99.90;;;;;;4870490;29;20041;-82
2024/04/03 08:11:40;;;;;;;0.40;0.40;;;14.60;99.90;;;;;;4872913;29;20033;-82
2024/04/03 08:14:07;;;;;;;1.13;0.50;;;14.60;99.90;;;;;;4841695;29;20238;-82
2024/04/03 08:16:35;;;;;;;0.90;0.30;;;14.60;99.90;;;;;;4844589;29;20124;-83
2024/04/03 08:19:00;;;;;;;0.82;0.35;;;14.60;99.90;;;;;;4861134;29;20025;-82
2024/04/03 08:21:26;;;;;;;1.75;0.40;;;14.70;99.90;;;;;;4844635;29;20123;-82
2024/04/03 08:23:52;;;;;;;0.60;0.40;;;14.70;99.90;;;;;;4860096;29;20301;-82
2024/04/03 08:26:17;;;;;;;1.25;0.43;;;14.70;99.90;;;;;;4844919;29;20116;-82
2024/04/03 08:28:43;;;;;;;0.70;0.30;;;14.70;99.90;;;;;;4859794;29;20040;-82
2024/04/03 08:31:12;;;;;;;0.80;0.40;;;14.70;99.90;;;;;;4867017;29;20394;-82
2024/04/03 08:33:38;;;;;;;1.27;0.60;;;14.70;99.90;;;;;;4843018;29;20053;-82
2024/04/03 08:36:04;;;;;;;2.25;0.60;;;14.70;99.90;;;;;;4859427;29;20782;-82
2024/04/03 08:38:30;;;;;;;1.10;0.40;;;14.80;99.90;;;;;;4855465;29;20037;-82
2024/04/03 08:40:56;;;;;;;1.23;0.30;;;14.70;99.90;;;;;;4855457;29;20026;-82
2024/04/03 08:43:23;;;;;;;0.68;0.40;;;14.70;99.90;;;;;;4846937;29;20049;-82
2024/04/03 08:45:49;;;;;;;1.90;0.75;;;14.70;99.90;;;;;;4864024;29;20495;-82
2024/04/03 08:48:22;;;;;;;0.90;0.60;;;14.80;99.90;;;;;;4859698;29;20045;-83
2024/04/03 08:50:49;;;;;;;2.08;0.50;;;14.80;99.90;;;;;;4859326;29;20443;-82
2024/04/03 08:53:23;;;;;;;0.40;0.30;;;14.80;99.90;;;;;;4860193;29;20803;-82
2024/04/03 08:55:51;;;;;;;1.52;0.40;;;14.80;99.90;;;;;;4844111;29;20028;-82
2024/04/03 08:58:18;;;;;;;0.70;0.40;;;14.80;99.90;;;;;;4843289;29;20030;-82
2024/04/03 09:00:44;;;;;;;0.22;0.22;;;14.80;99.90;;;;;;4843760;29;20113;-82
2024/04/03 09:03:12;;;;;;;1.10;0.40;;;14.70;99.90;;;;;;4860178;29;20074;-82
2024/04/03 09:05:38;;;;;;;0.52;0.38;;;14.80;99.90;;;;;;4842532;29;20479;-82
2024/04/03 09:08:05;;;;;;;1.38;0.40;;;14.80;99.90;;;;;;4843673;29;20037;-82
2024/04/03 09:10:43;;;;;;;0.40;0.40;;;14.80;99.90;;;;;;4858904;29;20033;-82
2024/04/03 09:13:10;;;;;;;0.30;0.20;;;14.80;99.90;;;;;;4858743;29;20034;-82
2024/04/03 09:15:36;;;;;;;0.98;0.40;;;14.80;99.90;;;;;;4859307;29;20057;-81
2024/04/03 09:18:06;;;;;;;1.27;0.50;;;14.80;99.90;;;;;;4846581;29;20458;-80
2024/04/03 09:20:33;;;;;;;0.85;0.40;;;14.80;99.90;;;;;;4843489;29;20032;-82
2024/04/03 09:22:59;;;;;;;0.35;0.32;;;14.80;99.90;;;;;;4843400;29;20033;-82
2024/04/03 09:25:29;;;;;;;0.43;0.40;;;14.80;99.90;;;;;;4859034;29;20033;-82
2024/04/03 09:28:03;;;;;;;0.75;0.38;;;14.70;99.90;;;;;;4843408;29;20029;-82
2024/04/03 09:30:29;;;;;;;0.50;0.30;;;14.80;99.90;;;;;;4852414;29;20029;-83
2024/04/03 09:33:05;;;;;;;1.40;0.45;;;14.80;99.90;;;;;;4842979;29;20055;-82
2024/04/03 09:35:39;;;;;;;0.30;0.30;;;14.80;99.90;;;;;;4846491;29;20025;-82
2024/04/03 09:38:05;;;;;;;0.40;0.30;;;14.80;99.90;;;;;;4857321;29;20487;-82
2024/04/03 09:40:37;;;;;;;0.52;0.38;;;14.80;99.90;;;;;;4858608;29;20070;-83
2024/04/03 09:43:09;;;;;;;0.60;0.40;;;14.80;99.90;;;;;;4858330;29;20025;-82
2024/04/03 09:45:34;;;;;;;0.80;0.40;;;14.80;99.90;;;;;;4860037;29;20025;-82
2024/04/03 09:48:09;;;;;;;0.47;0.38;;;14.80;99.90;;;;;;4900119;23;20058;-78
2024/04/03 09:50:43;;;;;;;0.45;0.30;;;14.80;99.90;;;;;;4848861;29;20033;-78
2024/04/03 09:53:14;;;;;;;0.73;0.40;;;14.80;99.90;;;;;;4855842;29;20124;-78
2024/04/03 09:55:40;;;;;;;1.08;0.35;;;14.70;99.90;;;;;;4859885;29;20120;-78
2024/04/03 09:58:11;;;;;;;0.30;0.30;;;14.70;99.90;;;;;;4864261;29;20521;-78
2024/04/03 10:00:37;;;;;;;0.93;0.40;;;14.80;99.90;;;;;;4848732;29;20094;-78
2024/04/03 10:03:04;;;;;;;0.88;0.45;;;14.80;99.90;;;;;;4856221;29;20074;-79
2024/04/03 10:05:39;;;;;;;0.60;0.40;;;14.80;99.90;;;;;;4840069;29;20036;-79
2024/04/03 10:08:12;;;;;;;0.82;0.45;;;14.80;99.90;;;;;;4840268;29;20033;-79
2024/04/03 10:10:45;;;;;;;0.70;0.63;;;14.80;99.90;;;;;;4839809;29;20030;-79
2024/04/03 10:13:26;;;;;;;1.50;0.30;;;14.80;99.90;;;;;;4853698;29;20030;-78
2024/04/03 10:16:03;;;;;;;0.60;0.38;;;14.80;99.90;;;;;;4859954;29;20153;-79
2024/04/03 10:18:29;;;;;;;0.40;0.40;;;14.80;99.90;;;;;;4854842;29;20340;-79
2024/04/03 10:20:59;;;;;;;1.25;0.40;;;14.80;99.90;;;;;;4839139;29;20091;-79
2024/04/03 10:23:25;;;;;;;0.38;0.30;;;14.70;99.90;;;;;;4839534;29;20026;-78
2024/04/03 10:25:52;;;;;;;0.30;0.28;;;14.80;99.90;;;;;;4840037;29;20376;-78
2024/04/03 10:28:18;;;;;;;0.50;0.30;;;14.70;99.90;;;;;;4841448;29;20033;-79
2024/04/03 10:30:44;;;;;;;0.55;0.40;;;14.80;99.90;;;;;;4845975;29;20137;-78
2024/04/03 10:33:14;;;;;;;1.23;0.30;;;14.80;99.90;;;;;;4840377;29;20034;-79
2024/04/03 10:35:40;;;;;;;0.30;0.30;;;14.80;99.90;;;;;;4840953;29;20064;-79
2024/04/03 10:38:06;;;;;;;0.20;0.20;;;14.80;99.90;;;;;;4839720;29;20050;-79
2024/04/03 10:40:32;;;;;;;0.65;0.32;;;14.70;99.90;;;;;;4838461;29;20026;-79
2024/04/03 10:42:58;;;;;;;0.38;0.30;;;14.80;99.90;;;;;;4840564;29;20037;-78
2024/04/03 10:45:25;;;;;;;0.20;0.20;;;14.80;99.90;;;;;;4840745;29;20046;-79
2024/04/03 10:47:51;;;;;;;0.57;0.30;;;14.80;99.90;;;;;;4851864;29;20578;-79
2024/04/03 10:50:17;;;;;;;0.30;0.30;;;14.80;99.90;;;;;;4877615;29;20113;-79
2024/04/03 10:52:44;;;;;;;0.60;0.30;;;14.80;99.90;;;;;;4860903;29;20505;-79
2024/04/03 10:55:12;;;;;;;0.70;0.30;;;14.70;99.90;;;;;;4860760;29;20017;-79
2024/04/03 10:57:41;;;;;;;0.68;0.30;;;14.80;99.90;;;;;;4876732;29;20483;-78
2024/04/03 11:00:16;;;;;;;0.73;0.25;;;14.80;99.90;;;;;;4861247;29;20025;-79
2024/04/03 11:02:45;;;;;;;0.45;0.30;;;14.70;99.90;;;;;;4887575;29;20570;-79
2024/04/03 11:05:14;;;;;;;0.50;0.30;;;14.70;99.90;;;;;;4863455;29;20455;-79
2024/04/03 11:07:43;;;;;;;0.20;0.20;;;14.70;99.90;;;;;;4880208;29;20541;-79
2024/04/03 11:10:11;;;;;;;0.60;0.40;;;14.80;99.90;;;;;;4864501;29;20029;-79
2024/04/03 11:12:37;;;;;;;0.40;0.38;;;14.80;99.90;;;;;;4863275;29;20131;-78
2024/04/03 11:15:03;;;;;;;0.20;0.20;;;14.80;99.90;;;;;;4864580;29;20450;-79
2024/04/03 11:17:29;;;;;;;0.30;0.30;;;14.80;99.90;;;;;;4881096;29;20032;-78
2024/04/03 11:19:55;;;;;;;0.82;0.30;;;14.70;99.90;;;;;;4880200;29;20029;-79
2024/04/03 11:22:20;;;;;;;0.43;0.30;;;14.70;99.90;;;;;;4871653;29;20115;-79
2024/04/03 11:24:46;;;;;;;0.30;0.30;;;14.80;99.90;;;;;;4881323;29;20080;-78
2024/04/03 11:27:11;;;;;;;0.35;0.20;;;14.80;99.90;;;;;;4864058;29;20025;-79
2024/04/03 11:29:40;;;;;;;0.68;0.30;;;14.80;99.90;;;;;;4863751;29;20025;-79
2024/04/03 11:32:06;;;;;;;0.47;0.40;;;14.80;99.90;;;;;;4880718;29;20024;-78
2024/04/03 11:34:32;;;;;;;0.30;0.30;;;14.80;99.90;;;;;;4871575;29;20028;-78
2024/04/03 11:36:58;;;;;;;0.30;0.30;;;14.80;99.90;;;;;;4859785;29;20026;-79
2024/04/03 11:39:25;;;;;;;0.30;0.20;;;14.80;99.90;;;;;;4879576;29;20033;-78
2024/04/03 11:41:50;;;;;;;0.63;0.32;;;14.80;99.90;;;;;;4861358;29;20478;-78
2024/04/03 11:44:16;;;;;;;0.47;0.30;;;14.80;99.90;;;;;;4880615;29;20033;-78
2024/04/03 11:46:42;;;;;;;0.50;0.30;;;14.80;99.90;;;;;;4879571;29;20389;-79
2024/04/03 11:49:08;;;;;;;0.45;0.30;;;14.80;99.90;;;;;;4879565;29;20343;-79
2024/04/03 11:51:34;;;;;;;0.77;0.30;;;14.70;99.90;;;;;;4871522;29;20025;-79
2024/04/03 11:53:59;;;;;;;0.77;0.30;;;14.80;99.90;;;;;;4863581;29;20036;-79
2024/04/03 11:56:26;;;;;;;0.35;0.30;;;14.80;99.90;;;;;;4862668;29;20029;-79
2024/04/03 11:58:52;;;;;;;0.43;0.35;;;14.70;99.90;;;;;;4875178;29;20025;-78
2024/04/03 12:01:18;;;;;;;0.47;0.30;;;14.80;99.90;;;;;;4880082;29;20394;-79
2024/04/03 12:03:44;;;;;;;0.65;0.35;;;14.80;99.90;;;;;;4863524;29;20025;-79
2024/04/03 12:06:10;;;;;;;0.68;0.40;;;14.70;99.90;;;;;;4878352;29;20040;-78
2024/04/03 12:08:36;;;;;;;0.50;0.50;;;14.80;99.90;;;;;;4880392;29;20104;-79
2024/04/03 12:11:06;;;;;;;1.00;0.32;;;14.80;99.90;;;;;;4862960;29;20029;-79
2024/04/03 12:13:32;;;;;;;0.60;0.40;;;14.70;99.90;;;;;;4877379;29;20109;-79
2024/04/03 12:16:01;;;;;;;0.40;0.30;;;14.70;99.90;;;;;;4880271;29;20056;-79
2024/04/03 12:18:37;;;;;;;0.38;0.25;;;14.70;99.90;;;;;;4862320;29;20068;-79
2024/04/03 12:21:04;;;;;;;0.47;0.40;;;14.80;99.90;;;;;;4878905;29;20616;-78
2024/04/03 12:23:30;;;;;;;0.50;0.40;;;14.80;99.90;;;;;;4879745;29;21009;-78
2024/04/03 12:25:56;;;;;;;0.20;0.20;;;14.80;99.90;;;;;;4890427;29;20141;-79
2024/04/03 12:28:22;;;;;;;0.30;0.30;;;14.70;99.90;;;;;;4879650;29;20036;-79
2024/04/03 12:30:47;;;;;;;0.75;0.40;;;14.80;99.90;;;;;;4863377;29;20037;-78
2024/04/03 12:33:13;;;;;;;0.75;0.30;;;14.70;99.90;;;;;;4862613;29;20430;-79
2024/04/03 12:35:38;;;;;;;0.32;0.20;;;14.80;99.90;;;;;;4879532;29;20021;-79
2024/04/03 12:38:04;;;;;;;0.30;0.30;;;14.80;99.90;;;;;;4856004;29;20045;-79
2024/04/03 12:40:30;;;;;;;0.88;0.20;;;14.80;99.90;;;;;;4879613;29;20416;-79
2024/04/03 12:42:55;;;;;;;0.30;0.30;;;14.80;99.90;;;;;;4876978;29;20040;-78
2024/04/03 12:45:21;;;;;;;0.70;0.38;;;14.80;99.90;;;;;;4879630;29;20034;-79
2024/04/03 12:47:47;;;;;;;0.77;0.30;;;14.70;99.90;;;;;;4879761;29;20033;-79
2024/04/03 12:50:12;;;;;;;0.40;0.20;;;14.80;99.90;;;;;;4862586;29;20040;-79
2024/04/03 12:52:38;;;;;;;1.10;0.50;;;;;;;;;;4869145;29;20088;-78
2024/04/03 12:55:05;;;;;;;1.25;1.00;;;14.60;99.90;;;;;;4878141;29;20115;-79
2024/04/03 12:57:30;;;;;;;1.88;1.10;;;14.40;99.90;;;;;;4862591;29;20057;-79
2024/04/03 12:59:56;;;;;;;3.45;1.15;;;14.30;99.90;;;;;;4862075;29;20438;-79
2024/04/03 13:02:21;;;;;;;6.78;1.00;;;14.20;99.90;;;;;;4862541;29;20033;-79
2024/04/03 13:04:47;;;;;;;2.13;0.95;;;14.10;99.90;;;;;;4879430;29;20044;-79
2024/04/03 13:07:13;;;;;;;6.00;0.80;;;14.00;99.90;;;;;;4858680;29;20110;-79
2024/04/03 13:09:39;;;;;;;2.25;0.60;;;14.00;99.90;;;;;;4879432;29;20455;-79
2024/04/03 13:12:05;;;;;;;0.60;0.40;;;13.90;99.90;;;;;;4878251;29;20044;-79
2024/04/03 13:14:32;;;;;;;0.55;0.25;;;;;;;;;;4879151;29;20029;-79
2024/04/03 13:16:58;;;;;;;0.60;0.22;;;;;;;;;;4877912;29;20033;-79
2024/04/03 13:19:23;;;;;;;0.65;0.40;;;13.90;99.90;;;;;;4878994;29;20037;-79
2024/04/03 13:21:49;;;;;;;0.80;0.30;;;14.00;99.90;;;;;;4861216;29;20095;-79
2024/04/03 13:24:14;;;;;;;0.50;0.30;;;14.10;99.90;;;;;;4877123;29;20025;-79
2024/04/03 13:26:40;;;;;;;0.30;0.20;;;14.10;99.90;;;;;;4862252;29;20486;-78
2024/04/03 13:29:06;;;;;;;0.95;0.20;;;14.20;99.90;;;;;;4861327;29;20072;-78
2024/04/03 13:31:31;;;;;;;0.30;0.20;;;14.30;99.90;;;;;;4861900;29;20477;-79
2024/04/03 13:33:57;;;;;;;0.30;0.20;;;14.30;99.90;;;;;;4884550;29;20043;-79
2024/04/03 13:36:25;;;;;;;0.40;0.20;;;14.40;99.90;;;;;;4879859;29;20032;-79
2024/04/03 13:38:51;;;;;;;0.35;0.32;;;14.40;99.90;;;;;;4854828;29;20025;-79
2024/04/03 13:41:17;;;;;;;0.63;0.20;;;14.40;99.90;;;;;;4869582;29;20449;-79
2024/04/03 13:43:42;;;;;;;0.45;0.30;;;14.50;99.90;;;;;;4862101;29;20396;-79
2024/04/03 13:46:09;;;;;;;0.20;0.20;;;14.50;99.90;;;;;;4876327;29;20037;-79
2024/04/03 13:48:34;;;;;;;0.28;0.25;;;14.50;99.90;;;;;;4876661;29;20037;-78
2024/04/03 13:51:00;;;;;;;0.52;0.20;;;14.50;99.90;;;;;;4861979;29;20119;-79
2024/04/03 13:53:26;;;;;;;1.00;0.22;;;14.60;99.90;;;;;;4861487;29;20486;-79
2024/04/03 13:55:59;;;;;;;0.30;0.20;;;14.60;99.90;;;;;;4878540;29;20029;-79
2024/04/03 13:58:25;;;;;;;0.20;0.13;;;14.60;99.90;;;;;;4860352;29;20052;-79
2024/04/03 14:00:52;;;;;;;0.32;0.30;;;14.60;99.90;;;;;;4860608;29;20029;-79
2024/04/03 14:03:18;;;;;;;0.38;0.17;;;14.60;99.90;;;;;;4884819;29;20032;-79
2024/04/03 14:05:47;;;;;;;0.30;0.10;;;14.60;99.90;;;;;;4884650;29;20099;-79
2024/04/03 14:08:12;;;;;;;0.82;0.20;;;14.60;99.90;;;;;;4872596;29;20458;-79
2024/04/03 14:10:38;;;;;;;0.57;0.20;;;14.70;99.90;;;;;;4880708;29;20036;-79
2024/04/03 14:13:04;;;;;;;0.55;0.20;;;14.60;99.90;;;;;;4892190;29;20031;-79
2024/04/03 14:15:30;;;;;;;0.65;0.35;;;14.60;99.90;;;;;;4870843;29;20024;-79
2024/04/03 14:17:57;;;;;;;0.40;0.20;;;14.70;99.90;;;;;;4882650;29;20052;-79
2024/04/03 14:20:23;;;;;;;0.30;0.30;;;14.70;99.90;;;;;;4879278;29;20080;-79
2024/04/03 14:22:49;;;;;;;0.75;0.30;;;14.60;99.90;;;;;;4888636;29;20032;-79
2024/04/03 14:25:14;;;;;;;0.10;0.10;;;14.60;99.90;;;;;;4889306;29;20045;-79
2024/04/03 14:27:41;;;;;;;0.40;0.30;;;14.70;99.90;;;;;;4884308;29;20416;-79
2024/04/03 14:30:09;;;;;;;0.10;0.10;;;14.60;99.90;;;;;;4885999;29;20032;-79
2024/04/03 14:32:35;;;;;;;0.70;0.30;;;14.70;99.90;;;;;;4876453;29;20037;-78
2024/04/03 14:35:05;;;;;;;0.47;0.30;;;14.70;99.90;;;;;;4883686;29;20132;-78
2024/04/03 14:37:31;;;;;;;0.77;0.20;;;14.70;99.90;;;;;;4887286;29;20104;-79
2024/04/03 14:39:57;;;;;;;0.57;0.30;;;14.70;99.90;;;;;;4885746;29;20663;-79
2024/04/03 14:42:23;;;;;;;1.55;0.30;;;14.70;99.90;;;;;;4874475;29;20036;-79
2024/04/03 14:44:48;;;;;;;1.52;0.22;;;14.70;99.90;;;;;;4879886;29;20028;-79
2024/04/03 14:47:14;;;;;;;0.35;0.20;;;14.70;99.90;;;;;;4872794;29;20033;-79
2024/04/03 14:49:40;;;;;;;0.77;0.30;;;14.70;99.90;;;;;;4877924;29;20502;-79
2024/04/03 14:52:06;;;;;;;1.48;0.40;;;14.70;99.90;;;;;;4884193;29;20075;-77
2024/04/03 14:54:32;;;;;;;0.95;0.30;;;14.70;99.90;;;;;;4888849;29;20445;-78
2024/04/03 14:56:57;;;;;;;0.60;0.28;;;14.70;99.90;;;;;;4883940;29;20021;-78
2024/04/03 14:59:23;;;;;;;0.38;0.20;;;14.70;99.90;;;;;;4861576;29;20044;-79
2024/04/03 15:01:52;;;;;;;0.60;0.30;;;14.70;99.90;;;;;;4892401;29;20107;-79
2024/04/03 15:04:18;;;;;;;0.85;0.45;;;14.70;99.90;;;;;;4884496;29;20039;-79
2024/04/03 15:06:44;;;;;;;1.30;0.30;;;14.70;99.90;;;;;;4872131;29;20028;-79
2024/04/03 15:09:17;;;;;;;0.75;0.40;;;14.70;99.90;;;;;;4885209;29;20402;-77
2024/04/03 15:11:45;;;;;;;0.45;0.20;;;14.70;99.90;;;;;;4883113;29;20107;-79
2024/04/03 15:14:11;;;;;;;0.45;0.30;;;14.70;99.90;;;;;;4880474;29;20021;-79
2024/04/03 15:16:37;;;;;;;0.70;0.28;;;14.70;99.90;;;;;;4878816;29;20120;-79
2024/04/03 15:19:06;;;;;;;0.55;0.40;;;14.70;99.90;;;;;;4873909;29;20107;-79
2024/04/03 15:21:32;;;;;;;0.50;0.30;;;14.70;99.90;;;;;;4876283;29;20032;-78
2024/04/03 15:23:58;;;;;;;1.13;0.30;;;14.70;99.90;;;;;;4890073;29;20526;-79
2024/04/03 15:26:24;;;;;;;0.45;0.22;;;14.70;99.90;;;;;;4871709;29;20064;-78
2024/04/03 15:28:50;;;;;;;0.85;0.40;;;14.70;99.90;;;;;;4868663;29;20056;-79
2024/04/03 15:31:18;;;;;;;0.45;0.20;;;14.70;99.90;;;;;;4885304;29;20111;-79
2024/04/03 15:33:44;;;;;;;0.85;0.40;;;14.70;99.90;;;;;;4871374;29;20029;-79
2024/04/03 15:36:12;;;;;;;0.50;0.28;;;14.70;99.90;;;;;;4879389;29;20115;-79
2024/04/03 15:38:40;;;;;;;1.75;0.40;;;14.70;99.90;;;;;;4868958;29;20418;-79
2024/04/03 15:41:06;;;;;;;0.65;0.30;;;14.70;99.90;;;;;;4884054;29;20025;-78
2024/04/03 15:43:32;;;;;;;0.77;0.47;;;14.70;99.90;;;;;;4885354;29;20474;-79
2024/04/03 15:46:00;;;;;;;1.00;0.30;;;14.70;99.90;;;;;;4891784;29;20036;-79
2024/04/03 15:48:28;;;;;;;1.90;0.40;;;14.70;99.90;;;;;;4910773;23;20089;-81
2024/04/03 15:50:54;;;;;;;1.08;0.40;;;14.70;99.90;;;;;;4912501;29;20397;-80
2024/04/03 15:53:20;;;;;;;0.68;0.30;;;14.70;99.90;;;;;;4917544;29;20028;-81
2024/04/03 15:55:46;;;;;;;0.63;0.50;;;14.70;99.90;;;;;;4917968;29;20024;-80
2024/04/03 15:58:16;;;;;;;0.55;0.38;;;14.70;99.90;;;;;;4911104;29;20016;-81
2024/04/03 16:00:44;;;;;;;1.02;0.25;;;14.70;99.90;;;;;;4893199;29;20029;-81
2024/04/03 16:03:10;;;;;;;0.73;0.55;;;14.70;99.90;;;;;;4888285;29;20043;-81
2024/04/03 16:05:38;;;;;;;0.60;0.40;;;14.70;99.90;;;;;;4899928;29;20405;-80
2024/04/03 16:08:05;;;;;;;1.60;0.50;;;14.70;99.90;;;;;;4895634;29;20554;-80
2024/04/03 16:10:31;;;;;;;1.60;0.45;;;14.70;99.90;;;;;;4895928;29;20393;-80
2024/04/03 16:12:57;;;;;;;0.98;0.50;;;14.70;99.90;;;;;;4895173;29;20032;-80
2024/04/03 16:15:22;;;;;;;0.73;0.30;;;14.70;99.90;;;;;;4894173;29;20035;-82
2024/04/03 16:17:48;;;;;;;1.35;0.43;;;14.70;99.90;;;;;;4886374;29;20024;-81
2024/04/03 16:20:14;;;;;;;1.25;0.40;;;14.70;99.90;;;;;;4894800;29;20083;-81
2024/04/03 16:22:40;;;;;;;1.25;0.50;;;14.70;99.90;;;;;;4879322;29;20067;-80